createdAt,value
2018-07-26T00:00:43.492Z,4.78
2018-07-26T00:03:13.094Z,4.60
2018-07-26T00:05:43.575Z,4.93
2018-07-26T00:08:13.994Z,4.87
2018-07-26T00:10:43.476Z,4.68
2018-07-26T00:13:13.041Z,4.70
2018-07-26T00:15:42.688Z,4.80
2018-07-26T00:18:12.221Z,4.53
2018-07-26T00:20:42.223Z,4.90
2018-07-26T00:23:11.691Z,4.70
2018-07-26T00:25:41.425Z,4.57
2018-07-26T00:28:10.820Z,4.55
2018-07-26T00:30:40.205Z,4.65
2018-07-26T00:33:09.899Z,4.93
2018-07-26T00:35:40.448Z,4.53
2018-07-26T00:38:10.348Z,4.60
2018-07-26T00:40:39.987Z,4.35
2018-07-26T00:43:09.527Z,4.55
2018-07-26T00:45:39.369Z,5.25
2018-07-26T00:48:09.067Z,4.68
2018-07-26T00:50:38.579Z,4.50
2018-07-26T00:53:07.668Z,4.68
2018-07-26T00:55:37.036Z,4.68
2018-07-26T00:58:06.887Z,4.68
2018-07-26T01:00:36.703Z,4.47
2018-07-26T01:03:08.094Z,4.97
2018-07-26T01:05:38.591Z,4.75
2018-07-26T01:08:08.045Z,4.72
2018-07-26T01:10:37.465Z,4.75
2018-07-26T01:13:06.925Z,4.90
2018-07-26T01:15:36.586Z,4.45
2018-07-26T01:18:06.064Z,5.32
2018-07-26T01:20:35.574Z,4.62
2018-07-26T01:23:05.052Z,4.57
2018-07-26T01:25:34.819Z,4.90
2018-07-26T01:28:05.428Z,5.00
2018-07-26T01:30:35.057Z,4.35
2018-07-26T01:33:04.584Z,4.57
2018-07-26T01:35:35.150Z,7.03
2018-07-26T01:38:04.729Z,4.95
2018-07-26T01:40:34.489Z,6.18
2018-07-26T01:43:14.762Z,5.12
2018-07-26T01:45:44.254Z,5.12
2018-07-26T01:48:13.739Z,4.50
2018-07-26T01:50:43.664Z,4.65
2018-07-26T01:53:14.355Z,4.43
2018-07-26T01:55:43.900Z,4.82
2018-07-26T01:58:13.450Z,4.80
2018-07-26T02:00:43.097Z,5.45
2018-07-26T02:03:12.567Z,4.47
2018-07-26T02:05:42.668Z,4.50
2018-07-26T02:08:12.161Z,4.55
2018-07-26T02:10:41.909Z,4.40
2018-07-26T02:13:11.703Z,4.43
2018-07-26T02:15:41.573Z,4.60
2018-07-26T02:18:11.214Z,4.70
2018-07-26T02:20:40.777Z,4.50
2018-07-26T02:23:10.391Z,4.72
2018-07-26T02:25:40.518Z,5.32
2018-07-26T02:28:11.378Z,4.82
2018-07-26T02:30:40.957Z,5.12
2018-07-26T02:33:11.085Z,5.03
2018-07-26T02:35:40.691Z,4.65
2018-07-26T02:38:10.402Z,5.07
2018-07-26T02:40:40.433Z,4.82
2018-07-26T02:43:10.264Z,4.43
2018-07-26T02:45:39.624Z,5.05
2018-07-26T02:48:09.228Z,4.70
2018-07-26T02:50:38.710Z,4.80
2018-07-26T02:53:09.185Z,5.40
2018-07-26T02:55:38.459Z,4.97
2018-07-26T02:58:08.205Z,4.53
2018-07-26T03:00:37.613Z,4.87
2018-07-26T03:03:07.161Z,4.93
2018-07-26T03:05:36.610Z,4.85
2018-07-26T03:08:06.527Z,4.57
2018-07-26T03:10:35.925Z,4.40
2018-07-26T03:13:05.675Z,5.07
2018-07-26T03:15:36.306Z,4.93
2018-07-26T03:18:05.850Z,4.68
2018-07-26T03:20:35.514Z,5.78
2018-07-26T03:23:05.042Z,4.82
2018-07-26T03:25:35.096Z,4.70
2018-07-26T03:28:04.829Z,4.80
2018-07-26T03:30:34.327Z,5.00
2018-07-26T03:33:03.778Z,4.85
2018-07-26T03:35:33.428Z,5.05
2018-07-26T03:38:03.314Z,5.03
2018-07-26T03:40:32.906Z,5.00
2018-07-26T03:43:02.598Z,5.15
2018-07-26T03:45:32.297Z,5.30
2018-07-26T03:48:01.698Z,5.00
2018-07-26T03:50:31.362Z,5.22
2018-07-26T03:53:00.834Z,5.05
2018-07-26T03:55:30.372Z,5.15
2018-07-26T03:57:59.860Z,4.82
2018-07-26T04:00:29.381Z,5.28
2018-07-26T04:02:58.815Z,4.80
2018-07-26T04:05:28.340Z,4.95
2018-07-26T04:07:57.815Z,5.28
2018-07-26T04:10:27.339Z,5.05
2018-07-26T04:12:56.807Z,5.22
2018-07-26T04:15:26.325Z,5.25
2018-07-26T04:17:56.435Z,5.30
2018-07-26T04:20:26.854Z,5.60
2018-07-26T04:22:56.147Z,5.22
2018-07-26T04:25:26.540Z,5.28
2018-07-26T04:27:56.009Z,5.28
2018-07-26T04:30:25.699Z,5.03
2018-07-26T04:32:55.230Z,5.18
2018-07-26T04:35:25.344Z,5.47
2018-07-26T04:37:54.950Z,5.70
2018-07-26T04:40:24.412Z,5.37
2018-07-26T04:42:54.053Z,5.62
2018-07-26T04:45:23.566Z,5.82
2018-07-26T04:47:53.147Z,5.40
2018-07-26T04:50:22.962Z,5.32
2018-07-26T04:52:52.316Z,5.45
2018-07-26T04:55:23.289Z,5.45
2018-07-26T04:57:52.888Z,5.55
2018-07-26T05:00:22.590Z,5.75
2018-07-26T05:02:52.810Z,5.82
2018-07-26T05:13:18.805Z,5.07
2018-07-26T05:28:03.547Z,5.93
2018-07-26T05:30:39.756Z,5.97
2018-07-26T05:38:52.825Z,6.07
2018-07-26T06:00:07.274Z,5.95
2018-07-26T06:02:36.833Z,6.50
2018-07-26T06:05:06.652Z,5.75
2018-07-26T06:07:37.131Z,6.82
2018-07-26T06:10:06.996Z,6.43
2018-07-26T06:12:38.741Z,6.32
2018-07-26T06:15:08.783Z,6.18
2018-07-26T06:17:38.271Z,5.70
2018-07-26T06:20:07.908Z,6.00
2018-07-26T06:22:37.291Z,5.47
2018-07-26T06:25:06.778Z,6.03
2018-07-26T06:27:37.280Z,6.12
2018-07-26T06:30:06.919Z,6.07
2018-07-26T06:32:37.524Z,6.47
2018-07-26T06:35:07.399Z,5.95
2018-07-26T06:37:36.779Z,5.87
2018-07-26T06:40:06.211Z,5.72
2018-07-26T06:42:36.159Z,6.47
2018-07-26T06:45:06.040Z,6.45
2018-07-26T06:47:35.945Z,6.30
2018-07-26T06:50:05.907Z,6.07
2018-07-26T06:52:35.633Z,6.05
2018-07-26T06:55:05.665Z,5.62
2018-07-26T06:57:35.021Z,5.70
2018-07-26T07:00:05.209Z,5.65
2018-07-26T07:02:34.868Z,6.00
2018-07-26T07:05:04.845Z,5.78
2018-07-26T07:07:35.020Z,5.40
2018-07-26T07:10:05.502Z,6.03
2018-07-26T07:12:35.162Z,5.68
2018-07-26T07:15:09.452Z,6.40
2018-07-26T07:17:39.484Z,5.72
2018-07-26T07:20:09.216Z,6.05
2018-07-26T07:22:38.733Z,5.85
2018-07-26T07:25:08.244Z,6.18
2018-07-26T07:27:37.911Z,6.03
2018-07-26T07:30:07.675Z,5.97
2018-07-26T07:32:37.127Z,6.15
2018-07-26T07:35:06.866Z,5.72
2018-07-26T07:37:36.579Z,5.85
2018-07-26T07:40:06.066Z,6.00
2018-07-26T07:42:36.950Z,6.25
2018-07-26T07:45:06.487Z,5.93
2018-07-26T07:47:36.133Z,5.95
2018-07-26T07:50:05.734Z,6.30
2018-07-26T07:52:35.104Z,6.25
2018-07-26T07:55:04.717Z,6.05
2018-07-26T07:57:34.255Z,5.97
2018-07-26T08:00:03.744Z,5.87
2018-07-26T08:02:33.444Z,5.80
2018-07-26T08:05:04.197Z,5.80
2018-07-26T08:07:33.918Z,5.72
2018-07-26T08:10:03.597Z,5.90
2018-07-26T08:12:33.130Z,6.07
2018-07-26T08:15:02.607Z,5.90
2018-07-26T08:17:32.161Z,6.35
2018-07-26T08:20:01.816Z,5.65
2018-07-26T08:22:31.282Z,6.15
2018-07-26T08:25:00.802Z,5.95
2018-07-26T08:27:29.668Z,5.82
2018-07-26T08:29:59.193Z,6.12
2018-07-26T08:32:28.447Z,6.30
2018-07-26T08:34:57.970Z,6.22
2018-07-26T08:37:27.755Z,5.78
2018-07-26T08:39:57.284Z,6.05
2018-07-26T08:42:27.090Z,5.45
2018-07-26T08:44:56.630Z,5.65
2018-07-26T08:47:26.395Z,5.90
2018-07-26T08:49:55.562Z,6.05
2018-07-26T08:52:25.208Z,5.95
2018-07-26T08:54:54.635Z,6.32
2018-07-26T08:57:23.916Z,5.68
2018-07-26T08:59:53.737Z,6.15
2018-07-26T09:02:23.295Z,5.95
2018-07-26T09:04:52.928Z,5.75
2018-07-26T09:07:22.520Z,5.90
2018-07-26T09:09:52.644Z,6.60
2018-07-26T09:12:22.525Z,5.97
2018-07-26T09:14:52.185Z,5.80
2018-07-26T09:17:21.924Z,5.68
2018-07-26T09:19:51.646Z,5.53
2018-07-26T09:22:21.160Z,5.45
2018-07-26T09:24:50.706Z,5.68
2018-07-26T09:27:20.277Z,5.78
2018-07-26T09:29:49.850Z,5.95
2018-07-26T09:32:19.692Z,5.85
2018-07-26T09:34:49.479Z,6.35
2018-07-26T09:37:21.031Z,5.85
2018-07-26T09:39:50.749Z,5.78
2018-07-26T09:42:20.573Z,6.43
2018-07-26T09:44:49.997Z,5.75
2018-07-26T09:47:19.701Z,5.80
2018-07-26T09:49:49.666Z,5.55
2018-07-26T09:52:20.051Z,5.95
2018-07-26T09:54:49.943Z,5.70
2018-07-26T09:57:19.403Z,5.47
2018-07-26T09:59:50.503Z,6.20
2018-07-26T10:02:22.509Z,5.75
2018-07-26T10:04:52.188Z,5.82
2018-07-26T10:07:21.819Z,5.65
2018-07-26T10:09:52.230Z,5.50
2018-07-26T10:12:22.211Z,5.50
2018-07-26T10:14:51.827Z,5.57
2018-07-26T10:17:21.908Z,5.80
2018-07-26T10:19:51.212Z,5.30
2018-07-26T10:22:20.768Z,5.43
2018-07-26T10:24:50.473Z,5.30
2018-07-26T10:27:20.191Z,5.62
2018-07-26T10:29:49.960Z,5.50
2018-07-26T10:32:19.708Z,5.72
2018-07-26T10:34:50.960Z,5.53
2018-07-26T10:37:21.243Z,6.05
2018-07-26T10:39:51.006Z,5.43
2018-07-26T10:42:21.234Z,5.87
2018-07-26T10:44:53.066Z,5.82
2018-07-26T10:47:22.372Z,5.97
2018-07-26T10:49:51.645Z,6.05
2018-07-26T10:52:24.600Z,5.55
2018-07-26T10:54:54.008Z,5.72
2018-07-26T10:57:24.575Z,5.80
2018-07-26T10:59:54.242Z,5.85
2018-07-26T11:02:24.192Z,5.97
2018-07-26T11:04:53.873Z,5.93
2018-07-26T11:07:23.361Z,5.80
2018-07-26T11:09:52.943Z,6.10
2018-07-26T11:12:22.666Z,6.43
2018-07-26T11:14:52.825Z,6.03
2018-07-26T11:17:22.830Z,6.22
2018-07-26T11:19:52.351Z,6.28
2018-07-26T11:22:21.927Z,6.40
2018-07-26T11:24:51.735Z,6.00
2018-07-26T11:27:23.062Z,6.40
2018-07-26T11:29:52.731Z,5.95
2018-07-26T11:32:23.657Z,5.85
2018-07-26T11:34:53.654Z,6.00
2018-07-26T11:37:23.145Z,5.97
2018-07-26T11:39:53.876Z,5.90
2018-07-26T11:42:24.535Z,5.72
2018-07-26T11:44:54.867Z,6.18
2018-07-26T11:47:24.437Z,5.87
2018-07-26T11:49:54.068Z,6.05
2018-07-26T11:52:23.670Z,6.00
2018-07-26T11:54:56.587Z,5.82
2018-07-26T11:57:26.315Z,5.75
2018-07-26T11:59:57.103Z,5.90
2018-07-26T12:02:27.181Z,6.07
2018-07-26T12:04:57.388Z,6.55
2018-07-26T12:07:26.708Z,5.87
2018-07-26T12:09:56.506Z,6.00
2018-07-26T12:12:26.014Z,6.50
2018-07-26T12:14:55.459Z,5.97
2018-07-26T12:17:24.922Z,5.50
2018-07-26T12:19:55.379Z,5.70
2018-07-26T12:22:24.622Z,6.03
2018-07-26T12:24:54.114Z,6.22
2018-07-26T12:27:23.777Z,5.93
2018-07-26T12:29:53.987Z,6.20
2018-07-26T12:32:23.501Z,6.35
2018-07-26T12:34:53.063Z,6.05
2018-07-26T12:37:22.811Z,5.93
2018-07-26T12:39:53.349Z,5.82
2018-07-26T12:42:22.657Z,6.12
2018-07-26T12:44:54.210Z,6.32
2018-07-26T12:47:23.697Z,5.80
2018-07-26T12:49:55.292Z,5.70
2018-07-26T12:52:24.938Z,5.85
2018-07-26T12:54:54.765Z,5.55
2018-07-26T12:57:24.240Z,5.50
2018-07-26T12:59:53.852Z,5.62
2018-07-26T13:02:23.802Z,5.53
2018-07-26T13:04:53.297Z,5.20
2018-07-26T13:07:22.733Z,5.12
2018-07-26T13:09:53.063Z,5.25
2018-07-26T13:12:23.173Z,4.93
2018-07-26T13:14:52.766Z,5.28
2018-07-26T13:17:22.653Z,5.70
2018-07-26T13:19:52.900Z,5.55
2018-07-26T13:22:22.827Z,5.45
2018-07-26T13:24:53.157Z,5.53
2018-07-26T13:27:22.507Z,5.20
2018-07-26T13:29:52.584Z,5.60
2018-07-26T13:32:22.091Z,5.35
2018-07-26T13:34:51.817Z,5.28
2018-07-26T13:37:22.295Z,5.32
2018-07-26T13:39:51.654Z,5.60
2018-07-26T13:42:21.365Z,5.53
2018-07-26T13:44:51.298Z,5.43
2018-07-26T13:47:20.949Z,5.43
2018-07-26T13:49:51.628Z,5.10
2018-07-26T13:52:21.039Z,5.30
2018-07-26T13:54:51.016Z,4.93
2018-07-26T13:57:20.727Z,5.12
2018-07-26T13:59:50.600Z,5.37
2018-07-26T14:02:20.068Z,5.37
2018-07-26T14:04:49.519Z,5.90
2018-07-26T14:07:19.979Z,5.03
2018-07-26T14:09:49.546Z,5.10
2018-07-26T14:12:19.037Z,5.50
2018-07-26T14:14:48.536Z,5.22
2018-07-26T14:17:18.057Z,5.22
2018-07-26T14:19:47.674Z,5.65
2018-07-26T14:22:17.237Z,5.80
2018-07-26T14:24:46.839Z,5.57
2018-07-26T14:27:17.404Z,5.53
2018-07-26T14:29:47.368Z,5.70
2018-07-26T14:32:18.167Z,6.12
2018-07-26T14:34:49.615Z,6.12
2018-07-26T14:37:19.205Z,5.70
2018-07-26T14:39:48.913Z,5.85
2018-07-26T14:42:18.453Z,5.80
2018-07-26T14:44:48.484Z,5.80
2018-07-26T14:47:17.868Z,6.25
2018-07-26T14:49:47.880Z,5.53
2018-07-26T14:52:18.338Z,5.47
2018-07-26T14:54:48.150Z,5.90
2018-07-26T14:57:17.683Z,5.70
2018-07-26T14:59:47.215Z,5.93
2018-07-26T15:02:17.680Z,5.95
2018-07-26T15:04:47.294Z,6.25
2018-07-26T15:07:16.812Z,6.37
2018-07-26T15:09:46.307Z,5.95
2018-07-26T15:12:15.697Z,6.30
2018-07-26T15:14:46.308Z,5.87
2018-07-26T15:17:16.008Z,6.10
2018-07-26T15:19:45.442Z,7.12
2018-07-26T15:22:15.655Z,6.30
2018-07-26T15:24:45.717Z,5.93
2018-07-26T15:27:15.339Z,6.60
2018-07-26T15:29:45.744Z,5.95
2018-07-26T15:32:15.469Z,6.03
2018-07-26T15:34:46.229Z,6.32
2018-07-26T15:37:15.867Z,5.60
2018-07-26T15:39:45.519Z,5.37
2018-07-26T15:42:15.889Z,5.62
2018-07-26T15:44:46.671Z,6.30
2018-07-26T15:47:16.432Z,5.78
2018-07-26T15:49:45.869Z,5.68
2018-07-26T15:52:15.609Z,6.47
2018-07-26T15:54:45.006Z,5.82
2018-07-26T15:57:14.483Z,6.20
2018-07-26T15:59:43.792Z,6.80
2018-07-26T16:02:13.527Z,5.87
2018-07-26T16:04:43.272Z,6.28
2018-07-26T16:07:12.748Z,5.85
2018-07-26T16:09:42.647Z,6.53
2018-07-26T16:12:12.332Z,6.50
2018-07-26T16:14:42.558Z,6.35
2018-07-26T16:17:12.159Z,6.35
2018-07-26T16:19:43.020Z,6.20
2018-07-26T16:22:12.634Z,6.32
2018-07-26T16:24:42.188Z,6.70
2018-07-26T16:27:11.874Z,6.20
2018-07-26T16:29:41.357Z,6.18
2018-07-26T16:32:11.029Z,6.78
2018-07-26T16:34:40.540Z,6.97
2018-07-26T16:37:10.140Z,6.72
2018-07-26T16:39:39.675Z,6.55
2018-07-26T16:42:09.992Z,6.40
2018-07-26T16:44:39.636Z,6.62
2018-07-26T16:47:09.288Z,6.55
2018-07-26T16:49:38.982Z,6.85
2018-07-26T16:52:09.459Z,6.50
2018-07-26T16:54:39.170Z,6.62
2018-07-26T16:57:10.052Z,7.12
2018-07-26T16:59:39.805Z,6.95
2018-07-26T17:02:11.219Z,6.68
2018-07-26T17:04:41.073Z,6.45
2018-07-26T17:07:11.129Z,7.37
2018-07-26T17:09:41.387Z,6.70
2018-07-26T17:12:10.864Z,6.72
2018-07-26T17:14:42.667Z,6.53
2018-07-26T17:17:12.284Z,6.50
2018-07-26T17:19:41.974Z,6.80
2018-07-26T17:22:11.415Z,6.37
2018-07-26T17:24:41.144Z,6.28
2018-07-26T17:27:10.540Z,6.10
2018-07-26T17:29:39.916Z,5.93
2018-07-26T17:32:09.337Z,5.72
2018-07-26T17:34:39.684Z,5.80
2018-07-26T17:37:08.999Z,5.75
2018-07-26T17:39:38.565Z,5.43
2018-07-26T17:42:07.969Z,5.00
2018-07-26T17:44:37.734Z,5.30
2018-07-26T17:47:07.773Z,5.03
2018-07-26T17:49:37.233Z,4.95
2018-07-26T17:52:06.752Z,5.12
2018-07-26T17:54:36.515Z,5.05
2018-07-26T17:57:06.441Z,5.60
2018-07-26T17:59:35.916Z,4.87
2018-07-26T18:02:05.801Z,5.10
2018-07-26T18:04:35.824Z,5.00
2018-07-26T18:07:06.143Z,5.05
2018-07-26T18:09:36.227Z,5.28
2018-07-26T18:12:05.651Z,4.65
2018-07-26T18:14:36.799Z,4.57
2018-07-26T18:17:06.531Z,5.20
2018-07-26T18:19:36.039Z,5.22
2018-07-26T18:22:05.666Z,4.97
2018-07-26T18:24:35.048Z,4.78
2018-07-26T18:27:04.597Z,5.10
2018-07-26T18:29:34.275Z,5.70
2018-07-26T18:32:04.748Z,5.40
2018-07-26T18:34:34.378Z,5.15
2018-07-26T18:37:03.897Z,5.53
2018-07-26T18:39:33.203Z,5.47
2018-07-26T18:42:02.999Z,5.60
2018-07-26T18:44:32.860Z,5.40
2018-07-26T18:47:02.268Z,5.55
2018-07-26T18:49:32.017Z,5.10
2018-07-26T18:52:01.925Z,5.20
2018-07-26T18:54:31.419Z,5.15
2018-07-26T18:57:01.597Z,5.32
2018-07-26T18:59:31.147Z,5.43
2018-07-26T19:02:00.658Z,5.30
2018-07-26T19:04:30.265Z,5.43
2018-07-26T19:06:59.838Z,5.45
2018-07-26T19:09:29.580Z,5.43
2018-07-26T19:11:59.124Z,5.65
2018-07-26T19:14:28.691Z,5.65
2018-07-26T19:16:58.192Z,5.70
2018-07-26T19:19:27.833Z,6.00
2018-07-26T19:21:57.544Z,5.75
2018-07-26T19:24:26.985Z,5.30
2018-07-26T19:26:56.567Z,5.22
2018-07-26T19:29:25.906Z,5.70
2018-07-26T19:31:54.875Z,5.07
2018-07-26T19:34:24.234Z,5.78
2018-07-26T19:36:53.375Z,5.18
2018-07-26T19:39:22.742Z,5.93
2018-07-26T19:41:52.524Z,5.55
2018-07-26T19:44:22.212Z,6.40
2018-07-26T19:46:51.748Z,5.37
2018-07-26T19:49:21.352Z,5.12
2018-07-26T19:51:50.882Z,5.50
2018-07-26T19:54:20.470Z,5.45
2018-07-26T19:56:50.084Z,5.60
2018-07-26T19:59:19.872Z,5.35
2018-07-26T20:01:51.184Z,4.95
2018-07-26T20:04:20.775Z,5.28
2018-07-26T20:06:50.425Z,5.00
2018-07-26T20:09:19.861Z,5.45
2018-07-26T20:11:50.118Z,5.62
2018-07-26T20:14:19.595Z,5.47
2018-07-26T20:16:49.771Z,5.72
2018-07-26T20:19:19.575Z,5.00
2018-07-26T20:21:49.564Z,5.55
2018-07-26T20:24:19.230Z,5.97
2018-07-26T20:26:48.871Z,5.68
2018-07-26T20:29:18.420Z,5.12
2018-07-26T20:31:48.095Z,5.37
2018-07-26T20:34:17.699Z,5.30
2018-07-26T20:36:47.580Z,5.55
2018-07-26T20:39:17.091Z,5.60
2018-07-26T20:41:46.764Z,5.15
2018-07-26T20:44:16.365Z,5.68
2018-07-26T20:46:45.715Z,5.10
2018-07-26T20:49:15.287Z,5.22
2018-07-26T20:51:45.305Z,6.03
2018-07-26T20:54:16.160Z,5.43
2018-07-26T20:56:45.696Z,5.18
2018-07-26T20:59:15.246Z,5.75
2018-07-26T21:01:45.044Z,5.57
2018-07-26T21:04:14.505Z,5.85
2018-07-26T21:06:44.106Z,5.28
2018-07-26T21:09:14.217Z,5.70
2018-07-26T21:11:43.659Z,5.93
2018-07-26T21:14:14.128Z,5.50
2018-07-26T21:16:43.754Z,5.72
2018-07-26T21:19:13.304Z,5.60
2018-07-26T21:21:42.806Z,5.62
2018-07-26T21:24:12.932Z,5.65
2018-07-26T21:26:43.420Z,5.37
2018-07-26T21:29:13.034Z,5.45
2018-07-26T21:31:42.817Z,5.75
2018-07-26T21:34:12.524Z,5.65
2018-07-26T21:36:44.809Z,5.12
2018-07-26T21:39:14.570Z,5.40
2018-07-26T21:41:44.833Z,5.25
2018-07-26T21:44:14.324Z,5.90
2018-07-26T21:46:44.040Z,5.45
2018-07-26T21:49:13.156Z,5.68
2018-07-26T21:51:43.504Z,5.22
2018-07-26T21:54:12.889Z,5.57
2018-07-26T21:56:44.947Z,5.12
2018-07-26T21:59:15.506Z,5.45
2018-07-26T22:01:44.992Z,5.43
2018-07-26T22:04:14.382Z,5.18
2018-07-26T22:06:44.656Z,5.00
2018-07-26T22:09:14.081Z,5.57
2018-07-26T22:11:43.655Z,4.97
2018-07-26T22:14:13.193Z,5.03
2018-07-26T22:16:42.773Z,5.12
2018-07-26T22:19:12.172Z,5.50
2018-07-26T22:21:41.998Z,5.20
2018-07-26T22:24:12.145Z,4.70
2018-07-26T22:26:41.640Z,5.15
2018-07-26T22:29:11.179Z,5.43
2018-07-26T22:31:40.870Z,5.47
2018-07-26T22:34:10.375Z,5.00
2018-07-26T22:36:40.213Z,5.22
2018-07-26T22:39:10.510Z,5.20
2018-07-26T22:41:40.427Z,5.75
2018-07-26T22:44:10.754Z,4.87
2018-07-26T22:46:40.376Z,5.18
2018-07-26T22:49:11.263Z,5.07
2018-07-26T22:51:40.921Z,5.30
2018-07-26T22:54:11.350Z,5.05
2018-07-26T22:56:40.868Z,5.05
2018-07-26T22:59:10.520Z,5.25
2018-07-26T23:01:40.103Z,5.30
2018-07-26T23:04:10.292Z,5.12
2018-07-26T23:06:40.081Z,4.90
2018-07-26T23:09:11.640Z,4.50
2018-07-26T23:11:41.357Z,5.18
2018-07-26T23:14:12.618Z,4.97
2018-07-26T23:16:43.150Z,4.90
2018-07-26T23:19:13.901Z,4.80
2018-07-26T23:21:43.775Z,4.78
2018-07-26T23:24:13.380Z,5.10
2018-07-26T23:26:42.938Z,4.65
2018-07-26T23:29:13.210Z,4.47
2018-07-26T23:31:42.627Z,4.80
2018-07-26T23:34:12.028Z,5.10
2018-07-26T23:36:41.442Z,4.65
2018-07-26T23:39:11.680Z,4.60
2018-07-26T23:41:41.194Z,4.80
2018-07-26T23:44:10.839Z,4.43
2018-07-26T23:46:40.354Z,4.62
2018-07-26T23:49:10.697Z,4.50
2018-07-26T23:51:40.262Z,5.07
2018-07-26T23:54:09.606Z,4.72
2018-07-26T23:56:39.212Z,4.40
2018-07-26T23:59:09.635Z,5.70
